Time;durP1;ratioP1;P1;durP2;ratioP2;P2;SDS_P1;SDS_P2;PMS_P1;PMS_P2;Temp;Humidity;BMP_temperature;BMP_pressure;BME280_temperature;BME280_humidity;BME280_pressure;Samples;Min_cycle;Max_cycle;Signal;HPM_P1;HPM_P2
2022/11/04 00:02:05;;;;;;;0.20;0.20;;;;;;;10.45;78.14;99698.31;5091245;29;20048;-90
2022/11/04 00:04:35;;;;;;;0.43;0.43;;;;;;;10.42;78.26;99691.38;5090179;29;20039;-91
2022/11/04 00:08:22;;;;;;;0.43;0.43;;;;;;;10.42;78.17;99696.63;5090015;29;20039;-89
2022/11/04 00:09:56;;;;;;;0.40;0.40;;;;;;;10.48;78.03;99691.16;5087935;29;20027;-88
2022/11/04 00:12:27;;;;;;;0.52;0.52;;;;;;;10.46;78.30;99692.97;5103286;29;20577;-89
2022/11/04 00:17:18;;;;;;;0.30;0.30;;;;;;;10.52;78.59;99699.75;5102634;28;20031;-88
2022/11/04 00:17:48;;;;;;;1.05;1.00;;;;;;;10.45;78.85;99706.16;5087481;29;20055;-89
2022/11/04 00:40:19;;;;;;;0.28;0.28;;;;;;;10.62;78.94;99729.03;5109641;28;20500;-90
2022/11/04 00:42:50;;;;;;;0.30;0.30;;;;;;;10.55;79.71;99734.56;5085029;29;20043;-91
2022/11/04 00:45:20;;;;;;;1.27;0.50;;;;;;;10.50;79.91;99741.75;5087573;29;20125;-90
2022/11/04 00:47:51;;;;;;;0.40;0.40;;;;;;;10.47;80.43;99741.03;5088203;29;20051;-89
2022/11/04 00:50:21;;;;;;;0.30;0.30;;;;;;;10.53;80.36;99746.88;5101983;28;20038;-91
2022/11/04 00:53:00;;;;;;;0.85;0.52;;;;;;;10.59;80.13;99755.38;5101705;29;20055;-90
2022/11/04 00:55:31;;;;;;;0.55;0.55;;;;;;;10.68;79.15;99761.13;5073795;29;20032;-90
2022/11/04 00:58:02;;;;;;;0.30;0.30;;;;;;;10.64;79.44;99759.53;5074214;29;20176;-91
2022/11/04 01:00:32;;;;;;;0.55;0.55;;;;;;;10.56;79.36;99753.75;5086889;29;20106;-91
2022/11/04 01:03:03;;;;;;;2.17;1.48;;;;;;;10.62;78.94;99752.66;5075533;29;20028;-87
2022/11/04 01:05:36;;;;;;;1.35;1.00;;;;;;;10.67;78.22;99748.91;5076829;29;20047;-90
2022/11/04 01:08:06;;;;;;;0.30;0.30;;;;;;;10.61;78.37;99757.06;5083055;29;20090;-90
2022/11/04 01:10:43;;;;;;;0.45;0.45;;;;;;;10.71;78.21;99762.75;5104544;29;20027;-89
2022/11/04 01:13:13;;;;;;;0.80;0.75;;;;;;;10.76;77.68;99759.94;5097542;29;20098;-90
2022/11/04 01:15:44;;;;;;;0.40;0.40;;;;;;;10.66;78.45;99770.81;5084767;29;20031;-90
2022/11/04 01:18:14;;;;;;;0.70;0.35;;;;;;;10.74;77.90;99780.13;5102990;28;20043;-89
2022/11/04 01:20:45;;;;;;;3.63;1.13;;;;;;;10.69;77.72;99786.44;5099725;29;20039;-89
2022/11/04 01:23:15;;;;;;;0.30;0.30;;;;;;;10.70;77.48;99790.72;5072895;29;20079;-89
2022/11/04 01:25:46;;;;;;;0.30;0.30;;;;;;;10.68;77.29;99787.34;5086243;29;20042;-89
2022/11/04 01:28:16;;;;;;;0.63;0.63;;;;;;;10.71;77.28;99792.44;5085996;29;20039;-89
2022/11/04 01:30:47;;;;;;;0.40;0.40;;;;;;;10.62;77.31;99799.84;5086683;29;20032;-89
2022/11/04 01:33:18;;;;;;;0.30;0.30;;;;;;;10.59;77.33;99797.34;5101955;29;20095;-88
2022/11/04 01:35:48;;;;;;;1.15;1.05;;;;;;;10.58;77.61;99801.75;5084018;29;20028;-90
2022/11/04 01:38:19;;;;;;;0.30;0.30;;;;;;;10.66;77.09;99804.91;5070320;29;20055;-90
2022/11/04 01:40:49;;;;;;;0.40;0.40;;;;;;;10.78;76.75;99800.91;5085214;29;20035;-90
2022/11/04 01:43:22;;;;;;;0.30;0.30;;;;;;;10.78;76.05;99802.69;5100072;29;20051;-90
2022/11/04 01:45:57;;;;;;;1.08;0.85;;;;;;;10.82;76.14;99799.88;5072094;29;20038;-90
2022/11/04 01:48:34;;;;;;;0.30;0.30;;;;;;;10.81;75.73;99794.69;5100355;29;20047;-90
2022/11/04 01:51:06;;;;;;;0.60;0.60;;;;;;;10.73;76.20;99799.41;5118335;29;20032;-89
2022/11/04 01:53:40;;;;;;;0.35;0.35;;;;;;;10.73;76.07;99800.28;5100238;28;20398;-89
2022/11/04 01:56:14;;;;;;;0.30;0.30;;;;;;;10.73;75.17;99802.03;5103296;29;20031;-89
2022/11/04 01:58:50;;;;;;;1.30;1.20;;;;;;;10.65;75.86;99805.81;5068625;29;20032;-90
2022/11/04 02:01:20;;;;;;;0.40;0.40;;;;;;;10.55;75.42;99802.75;5091107;29;20028;-90
2022/11/04 02:04:24;;;;;;;0.30;0.30;;;;;;;10.52;76.09;99799.41;5083928;29;20103;-90
2022/11/04 02:06:49;;;;;;;1.27;0.65;;;;;;;10.50;75.51;99809.94;5097530;29;20052;-88
2022/11/04 02:09:21;;;;;;;0.80;0.80;;;;;;;10.51;75.35;99818.69;5104580;29;20082;-88
2022/11/04 02:14:42;;;;;;;0.40;0.40;;;;;;;10.66;74.76;99812.78;5097530;29;20027;-89
2022/11/04 02:17:12;;;;;;;0.35;0.35;;;;;;;10.60;74.81;99810.44;5082371;29;20044;-89
2022/11/04 02:20:08;;;;;;;0.30;0.30;;;;;;;10.75;74.80;99810.69;5084214;29;20067;-88
2022/11/04 02:22:58;;;;;;;0.30;0.30;;;;;;;10.63;74.51;99807.66;5087722;29;20043;-89
2022/11/04 02:25:57;;;;;;;2.42;0.98;;;;;;;10.68;74.77;99808.34;5082510;29;20031;-89
2022/11/04 02:29:05;;;;;;;0.20;0.20;;;;;;;10.78;74.27;99802.69;5083821;29;20047;-90
2022/11/04 02:31:49;;;;;;;0.30;0.30;;;;;;;10.55;74.71;99802.75;5084253;28;20042;-90
2022/11/04 02:34:41;;;;;;;0.30;0.30;;;;;;;10.49;74.66;99796.91;5087755;29;20030;-89
2022/11/04 02:37:23;;;;;;;3.35;2.25;;;;;;;10.47;74.82;99796.97;5080749;29;20043;-89
2022/11/04 02:39:59;;;;;;;0.30;0.30;;;;;;;10.44;74.76;99796.25;5110592;29;20041;-90
2022/11/04 02:42:40;;;;;;;0.40;0.40;;;;;;;10.43;75.03;99791.91;5073840;29;20071;-88
2022/11/04 02:45:17;;;;;;;0.30;0.30;;;;;;;10.52;74.00;99794.16;5106487;29;20038;-90
2022/11/04 02:48:01;;;;;;;0.52;0.52;;;;;;;10.51;73.98;99795.06;5094138;29;20048;-88
2022/11/04 02:50:40;;;;;;;0.30;0.30;;;;;;;10.45;74.25;99798.78;5097143;29;20015;-89
2022/11/04 02:53:21;;;;;;;0.20;0.20;;;;;;;10.52;73.95;99787.13;5096316;29;20046;-89
2022/11/04 02:55:56;;;;;;;1.17;1.13;;;;;;;10.46;74.36;99791.75;5126089;29;20560;-90
2022/11/04 02:58:33;;;;;;;0.60;0.60;;;;;;;10.60;73.99;99792.06;5114912;28;20123;-91
2022/11/04 03:01:07;;;;;;;0.30;0.30;;;;;;;10.59;74.07;99792.97;5100521;29;20032;-89
2022/11/04 03:03:43;;;;;;;0.30;0.30;;;;;;;10.68;73.66;99791.72;5073838;29;20321;-90
2022/11/04 03:06:18;;;;;;;1.25;1.15;;;;;;;10.66;73.62;99789.19;5103609;29;20075;-90
2022/11/04 03:08:51;;;;;;;0.40;0.40;;;;;;;10.61;73.43;99775.41;5062424;29;20043;-89
2022/11/04 03:11:25;;;;;;;0.30;0.30;;;;;;;10.68;73.65;99786.47;5100078;29;20031;-90
2022/11/04 03:14:07;;;;;;;0.30;0.30;;;;;;;10.62;73.60;99784.13;5115441;28;20121;-90
2022/11/04 03:16:41;;;;;;;0.20;0.20;;;;;;;10.57;73.62;99788.72;5116664;28;20043;-89
2022/11/04 03:19:29;;;;;;;1.05;1.05;;;;;;;10.47;73.64;99789.09;5086126;29;20027;-88
2022/11/04 03:22:09;;;;;;;2.35;2.00;;;;;;;10.61;73.23;99795.53;5102007;29;20039;-90
2022/11/04 03:24:41;;;;;;;0.25;0.25;;;;;;;10.62;73.41;99787.59;5104138;29;20028;-90
2022/11/04 03:27:30;;;;;;;0.45;0.45;;;;;;;10.64;73.47;99796.25;5104635;29;20043;-90
2022/11/04 03:30:13;;;;;;;0.40;0.40;;;;;;;10.64;73.23;99795.41;5120654;28;20098;-89
2022/11/04 03:32:47;;;;;;;;;;;;;;;10.63;73.41;99805.03;5104915;29;20046;-90
2022/11/04 03:35:18;;;;;;;0.30;0.30;;;;;;;10.65;73.18;99812.84;5090439;29;20100;-90
2022/11/04 03:37:49;;;;;;;0.57;0.57;;;;;;;10.57;72.86;99805.28;5087363;29;20035;-89
2022/11/04 03:40:21;;;;;;;1.52;1.42;;;;;;;10.63;72.87;99804.19;5089037;29;22969;-90
2022/11/04 03:42:58;;;;;;;0.20;0.20;;;;;;;10.67;73.02;99806.63;5111349;28;20742;-91
2022/11/04 03:45:29;;;;;;;0.40;0.40;;;;;;;10.65;73.12;99807.63;5102790;29;20486;-90
2022/11/04 03:48:00;;;;;;;0.22;0.22;;;;;;;10.59;72.57;99794.72;5087625;29;20050;-91
2022/11/04 03:50:38;;;;;;;0.65;0.65;;;;;;;10.59;72.82;99798.22;5087593;29;20107;-88
2022/11/04 03:53:11;;;;;;;0.38;0.38;;;;;;;10.53;72.95;99790.63;5078982;29;20111;-88
2022/11/04 03:56:07;;;;;;;0.40;0.40;;;;;;;10.56;72.62;99787.84;5089307;29;20027;-89
2022/11/04 03:58:53;;;;;;;0.30;0.30;;;;;;;10.55;72.55;99789.63;5115873;28;20123;-90
2022/11/04 04:01:38;;;;;;;0.85;0.85;;;;;;;10.56;72.41;99790.47;5072658;29;20043;-90
2022/11/04 04:04:41;;;;;;;0.30;0.30;;;;;;;10.62;72.70;99797.25;5115888;29;20079;-89
2022/11/04 04:07:18;;;;;;;0.30;0.30;;;;;;;10.54;72.03;99795.78;5103681;29;20560;-89
2022/11/04 04:09:55;;;;;;;0.73;0.68;;;;;;;10.53;72.50;99801.94;5101935;29;20485;-89
2022/11/04 04:12:39;;;;;;;0.75;0.75;;;;;;;10.51;72.74;99797.69;5101656;29;20063;-89
2022/11/04 04:15:20;;;;;;;0.50;0.50;;;;;;;10.47;72.24;99802.22;5087223;29;20024;-89
2022/11/04 04:17:59;;;;;;;0.40;0.40;;;;;;;10.52;72.53;99796.78;5120216;28;20106;-89
2022/11/04 04:20:36;;;;;;;0.25;0.25;;;;;;;10.53;72.85;99798.50;5092481;29;20063;-89
2022/11/04 04:29:05;;;;;;;0.20;0.20;;;;;;;10.52;72.00;99807.28;5100010;29;20020;-89
2022/11/04 04:31:51;;;;;;;0.30;0.30;;;;;;;10.49;72.34;99812.63;5102350;28;20028;-89
2022/11/04 04:34:27;;;;;;;0.30;0.30;;;;;;;10.50;71.90;99814.34;5094842;29;20042;-90
2022/11/04 04:37:09;;;;;;;0.30;0.30;;;;;;;10.52;71.88;99817.75;5088017;29;20450;-89
2022/11/04 04:45:40;;;;;;;0.32;0.32;;;;;;;10.43;71.79;99812.88;5130551;28;20036;-91
2022/11/04 04:48:12;;;;;;;0.35;0.35;;;;;;;10.45;71.55;99824.19;5071875;29;20040;-88
2022/11/04 04:50:47;;;;;;;1.33;1.05;;;;;;;10.41;71.50;99830.44;5083736;29;20039;-90
2022/11/04 04:53:18;;;;;;;0.50;0.50;;;;;;;10.45;71.03;99821.56;5103616;29;20114;-90
2022/11/04 04:55:48;;;;;;;0.30;0.30;;;;;;;10.38;71.67;99827.03;5086369;29;20163;-89
2022/11/04 04:58:19;;;;;;;0.50;0.50;;;;;;;10.37;71.39;99825.31;5086360;29;20107;-89
2022/11/04 05:00:49;;;;;;;0.30;0.30;;;;;;;10.34;71.48;99829.81;5098290;29;20043;-90
2022/11/04 05:03:19;;;;;;;1.65;0.98;;;;;;;10.33;71.11;99828.97;5072258;29;20044;-89
2022/11/04 05:05:50;;;;;;;0.20;0.20;;;;;;;10.28;71.24;99828.31;5073907;29;20114;-89
2022/11/04 05:08:20;;;;;;;0.95;0.93;;;;;;;10.27;71.14;99829.22;5085580;29;20048;-89
2022/11/04 05:10:51;;;;;;;0.30;0.30;;;;;;;10.24;70.92;99824.09;5084241;29;20350;-91
2022/11/04 05:13:25;;;;;;;0.52;0.52;;;;;;;10.22;70.76;99833.78;5087248;29;20040;-90
2022/11/04 05:15:56;;;;;;;;;;;;;;;10.19;71.06;99836.53;5103087;29;20019;-90
2022/11/04 05:18:26;;;;;;;0.43;0.43;;;;;;;10.19;71.12;99836.53;5085769;29;19923;-90
2022/11/04 05:20:57;;;;;;;0.25;0.25;;;;;;;10.13;71.16;99836.75;5084535;29;20505;-90
2022/11/04 05:23:27;;;;;;;0.52;0.52;;;;;;;10.13;70.84;99831.50;5098178;29;20593;-91
2022/11/04 05:25:58;;;;;;;0.30;0.30;;;;;;;10.10;70.86;99831.66;5074307;29;20043;-90
2022/11/04 05:28:28;;;;;;;0.40;0.40;;;;;;;10.11;70.11;99835.97;5085978;29;20040;-89
2022/11/04 05:31:04;;;;;;;0.28;0.28;;;;;;;10.04;71.00;99837.97;5109582;29;20047;-89
2022/11/04 05:33:34;;;;;;;0.30;0.30;;;;;;;10.03;71.03;99836.28;5069875;29;20044;-90
2022/11/04 05:36:10;;;;;;;1.17;1.15;;;;;;;10.00;71.06;99837.25;5078599;29;20034;-89
2022/11/04 05:38:41;;;;;;;0.32;0.32;;;;;;;10.02;70.40;99840.66;5114033;28;20352;-90
2022/11/04 05:41:24;;;;;;;0.57;0.57;;;;;;;9.97;70.56;99834.75;5087748;29;20042;-90
2022/11/04 05:43:59;;;;;;;0.45;0.45;;;;;;;9.99;70.28;99843.41;5083362;29;20312;-90
2022/11/04 05:46:30;;;;;;;0.30;0.30;;;;;;;9.92;70.63;99841.94;5084224;28;20047;-90
2022/11/04 05:49:01;;;;;;;0.60;0.60;;;;;;;9.95;70.28;99836.59;5099681;29;20095;-90
2022/11/04 05:51:32;;;;;;;0.30;0.30;;;;;;;9.94;70.09;99837.50;5083951;28;20031;-90
2022/11/04 05:54:02;;;;;;;0.50;0.50;;;;;;;9.91;70.15;99842.84;5076808;29;20039;-90
2022/11/04 05:56:33;;;;;;;0.40;0.40;;;;;;;9.88;70.24;99838.56;5086414;28;20037;-89
2022/11/04 05:59:04;;;;;;;0.57;0.57;;;;;;;9.86;70.30;99834.31;5099637;28;20023;-84
2022/11/04 06:01:37;;;;;;;0.35;0.35;;;;;;;9.83;70.21;99837.03;5092383;28;20034;-83
2022/11/04 06:04:13;;;;;;;0.50;0.50;;;;;;;9.76;70.47;99837.28;5077251;28;20240;-83
2022/11/04 06:06:44;;;;;;;0.30;0.30;;;;;;;9.74;70.36;99840.88;5074579;28;20090;-84
2022/11/04 06:09:14;;;;;;;0.30;0.30;;;;;;;9.77;69.76;99848.59;5094651;29;20020;-84
2022/11/04 06:11:45;;;;;;;0.20;0.20;;;;;;;9.76;70.20;99839.91;5077036;28;20039;-84
2022/11/04 06:14:19;;;;;;;0.82;0.63;;;;;;;9.74;70.55;99846.97;5093819;29;20023;-84
2022/11/04 06:16:49;;;;;;;;;;;;;;;9.74;70.17;99853.97;5093394;28;20056;-84
2022/11/04 06:19:19;;;;;;;0.25;0.25;;;;;;;9.67;70.67;99848.09;5076936;29;19926;-84
2022/11/04 06:21:50;;;;;;;0.40;0.40;;;;;;;9.69;69.88;99854.16;5091120;28;20039;-83
2022/11/04 06:24:20;;;;;;;2.38;0.85;;;;;;;9.64;70.59;99856.06;5111217;29;20099;-84
2022/11/04 06:26:51;;;;;;;1.48;1.38;;;;;;;9.64;70.04;99855.22;5092129;28;20103;-84
2022/11/04 06:29:21;;;;;;;0.50;0.50;;;;;;;9.70;70.07;99858.47;5094565;29;20027;-84
2022/11/04 06:31:51;;;;;;;0.30;0.30;;;;;;;9.74;69.93;99865.28;5089368;29;20268;-83
2022/11/04 06:34:22;;;;;;;4.20;1.98;;;;;;;9.67;69.95;99871.69;5102513;29;20110;-84
2022/11/04 06:36:52;;;;;;;1.08;0.98;;;;;;;9.59;69.95;99873.72;5093615;28;20154;-84
2022/11/04 06:39:23;;;;;;;2.25;2.05;;;;;;;9.62;69.73;99884.09;5079780;29;20407;-84
2022/11/04 06:41:53;;;;;;;0.30;0.30;;;;;;;9.63;69.79;99877.94;5088678;29;20496;-83
2022/11/04 06:44:24;;;;;;;0.20;0.20;;;;;;;9.59;69.82;99879.81;5084524;29;20520;-84
2022/11/04 06:46:54;;;;;;;0.55;0.55;;;;;;;9.56;69.48;99886.91;5080181;28;20071;-82
2022/11/04 06:49:25;;;;;;;0.30;0.30;;;;;;;9.58;69.39;99890.34;5133354;28;20071;-83
2022/11/04 06:51:55;;;;;;;1.08;1.08;;;;;;;9.56;69.59;99894.78;5098776;28;20043;-82
2022/11/04 06:54:25;;;;;;;0.35;0.35;;;;;;;9.52;69.62;99893.19;5098613;29;20028;-83
2022/11/04 06:56:56;;;;;;;0.50;0.50;;;;;;;9.53;69.39;99913.25;5107944;28;20035;-82
2022/11/04 06:59:26;;;;;;;0.85;0.85;;;;;;;9.54;69.43;99912.34;5093775;29;20036;-81
2022/11/04 07:01:57;;;;;;;0.85;0.85;;;;;;;9.48;69.89;99912.53;5088118;29;20043;-82
2022/11/04 07:04:27;;;;;;;0.75;0.75;;;;;;;9.40;70.42;99918.91;5075428;29;20083;-82
2022/11/04 07:06:57;;;;;;;0.90;0.90;;;;;;;9.32;71.26;99912.22;5092996;28;20107;-81
2022/11/04 07:09:28;;;;;;;0.30;0.30;;;;;;;9.36;70.43;99908.56;5094568;29;20031;-82
2022/11/04 07:11:58;;;;;;;0.60;0.60;;;;;;;9.33;70.69;99914.78;5090736;29;20047;-82
2022/11/04 07:14:30;;;;;;;0.30;0.30;;;;;;;9.31;70.77;99913.97;5095572;28;20032;-81
2022/11/04 07:17:00;;;;;;;0.30;0.30;;;;;;;9.35;70.85;99923.44;5090253;28;20048;-82
2022/11/04 07:19:31;;;;;;;0.57;0.57;;;;;;;9.38;70.64;99923.31;5092400;29;20034;-81
2022/11/04 07:22:01;;;;;;;0.30;0.30;;;;;;;9.33;71.32;99925.25;5089898;29;20285;-82
2022/11/04 07:24:32;;;;;;;1.20;1.15;;;;;;;9.37;71.04;99931.25;5107241;29;20115;-82
2022/11/04 07:27:02;;;;;;;0.30;0.30;;;;;;;9.39;71.08;99934.66;5077270;29;20497;-82
2022/11/04 07:29:33;;;;;;;0.88;0.52;;;;;;;9.39;71.27;99943.34;5093122;29;20484;-82
2022/11/04 07:32:03;;;;;;;0.30;0.30;;;;;;;9.44;71.18;99945.81;5070322;29;20372;-82
2022/11/04 07:34:34;;;;;;;0.55;0.55;;;;;;;9.42;71.45;99945.88;5070696;29;20031;-82
2022/11/04 07:37:04;;;;;;;2.08;1.75;;;;;;;9.45;71.02;99956.25;5087847;29;20047;-82
2022/11/04 07:39:35;;;;;;;0.45;0.45;;;;;;;9.48;71.23;99957.91;5090773;29;20096;-82
2022/11/04 07:42:07;;;;;;;0.30;0.30;;;;;;;9.52;70.87;99967.34;5094568;29;20102;-82
2022/11/04 07:44:37;;;;;;;0.30;0.30;;;;;;;9.56;70.59;99971.59;5075650;29;20032;-82
2022/11/04 07:47:08;;;;;;;0.30;0.30;;;;;;;9.59;71.19;99968.00;5076614;29;20378;-82
2022/11/04 07:49:38;;;;;;;0.43;0.43;;;;;;;9.60;71.41;99972.34;5090519;29;20309;-82
2022/11/04 07:52:09;;;;;;;0.73;0.47;;;;;;;9.62;70.88;99975.78;5076534;29;20043;-81
2022/11/04 07:54:39;;;;;;;0.50;0.50;;;;;;;9.65;70.90;99974.81;5064977;29;20024;-82
2022/11/04 07:57:10;;;;;;;0.30;0.30;;;;;;;9.70;70.81;99989.44;5079857;29;20043;-82
2022/11/04 07:59:40;;;;;;;0.40;0.40;;;;;;;9.72;71.13;100000.72;5092007;29;20127;-82
2022/11/04 08:02:11;;;;;;;0.30;0.30;;;;;;;9.74;71.26;100006.75;5110307;28;20058;-82
2022/11/04 08:04:41;;;;;;;0.30;0.30;;;;;;;9.77;71.42;100003.16;5093473;29;20514;-82
2022/11/04 08:07:12;;;;;;;0.30;0.30;;;;;;;9.80;71.38;100000.44;5092930;29;20051;-82
2022/11/04 08:09:42;;;;;;;0.65;0.65;;;;;;;9.84;71.47;99993.34;5092037;29;20074;-82
2022/11/04 08:12:13;;;;;;;0.20;0.20;;;;;;;9.88;71.44;100000.16;5103136;29;20039;-82
2022/11/04 08:14:43;;;;;;;0.30;0.30;;;;;;;9.88;71.62;100000.16;5095258;29;20550;-82
2022/11/04 08:17:14;;;;;;;2.28;0.93;;;;;;;9.94;71.17;100005.22;5072015;29;20039;-84
2022/11/04 08:19:44;;;;;;;0.95;0.95;;;;;;;9.97;71.82;100007.69;5065291;29;20044;-82
2022/11/04 08:22:15;;;;;;;0.40;0.40;;;;;;;10.03;71.36;100012.75;5073214;29;20044;-82
2022/11/04 08:24:46;;;;;;;0.30;0.30;;;;;;;10.06;71.45;100010.00;5086161;29;20044;-82
2022/11/04 08:27:16;;;;;;;0.30;0.30;;;;;;;10.03;71.45;100017.97;5109125;28;20044;-82
2022/11/04 08:29:47;;;;;;;0.30;0.30;;;;;;;10.06;71.54;100020.47;5096074;29;20046;-82
2022/11/04 08:32:17;;;;;;;0.80;0.80;;;;;;;10.10;71.70;100012.50;5110303;28;20036;-82
2022/11/04 08:34:48;;;;;;;0.50;0.50;;;;;;;10.16;71.62;100012.28;5090349;29;20035;-83
2022/11/04 08:37:18;;;;;;;0.30;0.30;;;;;;;10.17;71.60;100009.59;5108799;28;20039;-82
2022/11/04 08:39:49;;;;;;;0.30;0.30;;;;;;;10.18;72.03;100013.94;5065440;29;20036;-82
2022/11/04 08:42:19;;;;;;;0.75;0.73;;;;;;;10.21;71.72;100016.44;5079251;29;20101;-82
2022/11/04 08:44:50;;;;;;;0.50;0.50;;;;;;;10.26;71.97;100008.41;5110687;29;20114;-82
2022/11/04 08:47:21;;;;;;;1.05;0.65;;;;;;;10.29;71.61;100007.44;5096040;28;20036;-80
2022/11/04 08:49:51;;;;;;;1.08;0.98;;;;;;;10.35;71.76;100004.56;5095239;29;20034;-81
2022/11/04 08:52:22;;;;;;;0.85;0.80;;;;;;;10.35;72.07;100010.69;5094903;29;20059;-81
2022/11/04 08:54:53;;;;;;;2.08;1.90;;;;;;;10.39;71.75;100011.47;5096393;29;20259;-81
2022/11/04 08:57:24;;;;;;;0.35;0.35;;;;;;;10.39;72.09;100012.31;5090785;29;20042;-82
2022/11/04 08:59:55;;;;;;;0.40;0.40;;;;;;;10.41;72.44;100007.03;5079256;29;20401;-82
2022/11/04 09:02:25;;;;;;;0.65;0.65;;;;;;;10.44;72.11;100013.91;5094508;29;20044;-83
2022/11/04 09:04:56;;;;;;;1.25;1.15;;;;;;;10.50;71.84;100009.28;5094922;29;20042;-82
2022/11/04 09:07:26;;;;;;;0.30;0.30;;;;;;;10.56;71.56;100018.69;5111112;28;20039;-82
2022/11/04 09:09:57;;;;;;;0.70;0.70;;;;;;;10.65;71.98;100017.50;5090909;28;20036;-82
2022/11/04 09:12:27;;;;;;;2.33;1.85;;;;;;;10.63;72.07;100017.53;5092120;29;20047;-83
2022/11/04 09:14:58;;;;;;;7.57;1.30;;;;;;;10.64;71.73;100023.66;5095915;29;20554;-82
2022/11/04 09:17:28;;;;;;;0.35;0.35;;;;;;;10.65;71.87;100017.50;5093521;29;20044;-82
2022/11/04 09:19:58;;;;;;;2.17;1.90;;;;;;;10.66;72.30;100025.28;5099749;29;20060;-82
2022/11/04 09:22:29;;;;;;;2.08;1.85;;;;;;;10.68;72.74;100020.84;5078404;29;20040;-82
2022/11/04 09:25:00;;;;;;;2.78;1.23;;;;;;;10.71;72.89;100023.34;5079819;29;20521;-81
2022/11/04 09:27:30;;;;;;;0.32;0.32;;;;;;;10.79;72.20;100024.78;5080669;29;20581;-82
2022/11/04 09:30:00;;;;;;;1.10;0.95;;;;;;;10.80;72.22;100026.50;5078500;29;20514;-82
2022/11/04 09:32:31;;;;;;;0.50;0.50;;;;;;;10.80;72.75;100026.50;5093081;29;20418;-81
2022/11/04 09:35:02;;;;;;;0.52;0.52;;;;;;;10.91;72.15;100034.81;5082416;29;20038;-82
2022/11/04 09:37:32;;;;;;;0.45;0.45;;;;;;;10.91;73.81;100029.56;5113072;28;20036;-82
2022/11/04 09:40:03;;;;;;;0.20;0.20;;;;;;;10.88;73.51;100032.31;5089844;29;20114;-83
2022/11/04 09:42:34;;;;;;;0.30;0.30;;;;;;;11.06;72.42;100024.63;5093213;28;20063;-82
2022/11/04 09:45:12;;;;;;;1.10;1.10;;;;;;;11.03;73.62;100018.56;5092469;29;20162;-82
2022/11/04 09:47:46;;;;;;;1.85;0.93;;;;;;;11.24;72.12;100009.91;5093571;29;20063;-82
2022/11/04 09:50:31;;;;;;;0.73;0.73;;;;;;;11.17;72.48;100007.53;5093884;29;20066;-82
2022/11/04 09:53:27;;;;;;;0.73;0.73;;;;;;;11.20;73.19;100003.06;5095220;29;20478;-83
2022/11/04 09:56:02;;;;;;;0.30;0.30;;;;;;;11.17;73.55;100012.75;5077707;29;20091;-87
2022/11/04 09:58:36;;;;;;;0.77;0.77;;;;;;;11.12;73.70;100027.00;5077199;29;20044;-82
2022/11/04 10:01:29;;;;;;;1.25;1.17;;;;;;;11.10;72.99;100031.47;5077756;29;20094;-82
2022/11/04 10:04:11;;;;;;;0.20;0.20;;;;;;;11.08;73.23;100036.75;5090909;29;20054;-81
2022/11/04 10:06:48;;;;;;;0.63;0.63;;;;;;;11.14;72.45;100030.41;5096835;29;20118;-82
2022/11/04 10:09:39;;;;;;;1.38;1.27;;;;;;;11.20;72.50;100030.16;5073857;29;20196;-81
2022/11/04 10:12:22;;;;;;;3.53;1.08;;;;;;;11.25;72.58;100028.22;5110121;28;20041;-81
2022/11/04 10:15:14;;;;;;;0.30;0.30;;;;;;;11.17;72.60;100031.16;5106901;29;20027;-80
2022/11/04 10:18:22;;;;;;;0.30;0.30;;;;;;;11.18;72.48;100029.41;5105781;29;20044;-80
2022/11/04 10:21:29;;;;;;;0.30;0.30;;;;;;;11.16;72.87;100029.44;5101413;29;20140;-80
2022/11/04 10:24:15;;;;;;;0.20;0.20;;;;;;;11.18;72.19;100032.84;5119388;29;20072;-81
2022/11/04 10:26:51;;;;;;;0.30;0.30;;;;;;;11.21;73.25;100039.75;5098448;28;20047;-82
2022/11/04 10:29:47;;;;;;;0.65;0.65;;;;;;;11.27;72.72;100041.28;5077825;29;20032;-82
2022/11/04 10:32:58;;;;;;;0.43;0.43;;;;;;;11.35;72.28;100044.44;5095007;29;20357;-82
2022/11/04 10:35:45;;;;;;;0.20;0.20;;;;;;;11.42;71.87;100042.44;5096772;29;20032;-81
2022/11/04 10:38:28;;;;;;;0.20;0.20;;;;;;;11.44;72.59;100037.97;5111059;28;20077;-81
2022/11/04 10:40:59;;;;;;;0.20;0.20;;;;;;;11.47;72.36;100038.69;5111591;28;20047;-82
2022/11/04 10:43:32;;;;;;;0.40;0.40;;;;;;;11.57;71.56;100044.41;5111822;28;20498;-81
2022/11/04 10:46:14;;;;;;;;;;;;;;;11.59;72.02;100050.47;5080245;29;20068;-80
2022/11/04 10:48:50;;;;;;;0.30;0.30;;;;;;;11.61;72.40;100050.41;5092496;29;19932;-82
2022/11/04 10:51:23;;;;;;;0.30;0.30;;;;;;;11.64;72.28;100056.38;5093689;29;20513;-82
2022/11/04 10:53:56;;;;;;;0.90;0.63;;;;;;;11.68;71.93;100061.50;5107116;28;20134;-82
2022/11/04 10:56:32;;;;;;;0.28;0.28;;;;;;;11.67;71.02;100059.78;5096762;28;20024;-81
2022/11/04 10:59:21;;;;;;;0.20;0.20;;;;;;;11.64;71.49;100066.88;5106559;29;20159;-82
2022/11/04 11:01:56;;;;;;;0.30;0.30;;;;;;;11.74;71.93;100079.63;5092799;28;20050;-82
2022/11/04 11:04:34;;;;;;;0.40;0.40;;;;;;;11.84;72.19;100067.81;5094613;29;20044;-83
2022/11/04 11:07:07;;;;;;;0.20;0.20;;;;;;;11.81;72.09;100074.06;5066906;29;20047;-81
2022/11/04 11:09:41;;;;;;;0.32;0.32;;;;;;;11.85;71.98;100084.44;5094273;29;20209;-82
2022/11/04 11:12:11;;;;;;;0.25;0.25;;;;;;;11.77;71.43;100087.41;5077426;29;20048;-82
2022/11/04 11:14:41;;;;;;;0.20;0.20;;;;;;;11.81;71.44;100096.84;5092958;29;20031;-81
2022/11/04 11:17:21;;;;;;;0.52;0.52;;;;;;;11.75;71.34;100094.50;5076986;29;20160;-81
2022/11/04 11:19:59;;;;;;;0.70;0.70;;;;;;;11.85;71.67;100090.56;5108141;29;20115;-81
2022/11/04 11:22:41;;;;;;;0.20;0.20;;;;;;;11.88;71.89;100094.81;5096561;29;20064;-82
2022/11/04 11:25:11;;;;;;;0.30;0.30;;;;;;;11.95;71.79;100097.13;5093343;29;20033;-82
2022/11/04 11:27:48;;;;;;;0.65;0.65;;;;;;;11.92;71.64;100092.00;5089328;29;20410;-81
2022/11/04 11:30:24;;;;;;;0.88;0.88;;;;;;;11.98;71.69;100095.31;5107840;29;20035;-81
2022/11/04 11:32:59;;;;;;;0.40;0.40;;;;;;;12.01;70.81;100100.44;5093922;28;20039;-81
2022/11/04 11:35:40;;;;;;;0.75;0.75;;;;;;;12.13;70.95;100105.16;5093805;29;20039;-82
2022/11/04 11:38:17;;;;;;;1.10;0.57;;;;;;;12.06;71.12;100111.63;5094183;29;20094;-81
2022/11/04 11:40:51;;;;;;;0.20;0.20;;;;;;;11.99;70.72;100112.81;5106824;29;20316;-81
2022/11/04 11:43:32;;;;;;;0.45;0.45;;;;;;;12.09;71.27;100111.50;5093136;29;20122;-81
2022/11/04 11:46:03;;;;;;;0.40;0.40;;;;;;;12.13;71.40;100115.69;5101048;28;20035;-81
2022/11/04 11:48:42;;;;;;;0.60;0.60;;;;;;;12.20;71.40;100122.38;5090310;29;20048;-81
2022/11/04 11:51:14;;;;;;;0.30;0.30;;;;;;;12.23;71.39;100124.88;5095926;29;20450;-81
2022/11/04 11:54:13;;;;;;;0.20;0.20;;;;;;;12.38;70.51;100122.50;5075174;29;20046;-82
2022/11/04 11:56:49;;;;;;;0.30;0.30;;;;;;;12.41;70.97;100120.59;5097500;28;20032;-81
2022/11/04 11:59:27;;;;;;;0.63;0.63;;;;;;;12.32;70.75;100114.88;5112191;29;20066;-80
2022/11/04 12:02:17;;;;;;;0.80;0.80;;;;;;;12.39;71.17;100111.06;5079546;29;20040;-81
2022/11/04 12:04:47;;;;;;;0.52;0.52;;;;;;;12.34;70.60;100116.53;5097938;29;20469;-82
2022/11/04 12:07:37;;;;;;;0.25;0.25;;;;;;;12.37;70.88;100118.16;5097533;29;20035;-82
2022/11/04 12:10:26;;;;;;;0.50;0.50;;;;;;;12.49;71.11;100124.66;5076109;29;20032;-82
2022/11/04 12:13:19;;;;;;;4.40;0.85;;;;;;;12.46;70.77;100122.19;5114147;28;20048;-82
2022/11/04 12:16:29;;;;;;;0.30;0.30;;;;;;;12.45;71.43;100123.94;5093158;29;20060;-81
2022/11/04 12:19:15;;;;;;;0.22;0.22;;;;;;;12.56;70.79;100124.31;5074729;29;20264;-82
2022/11/04 12:22:17;;;;;;;0.20;0.20;;;;;;;12.54;70.95;100123.53;5107550;28;20054;-82
2022/11/04 12:25:20;;;;;;;1.95;0.73;;;;;;;12.57;71.09;100120.78;5105868;28;20136;-82
2022/11/04 12:27:56;;;;;;;0.30;0.30;;;;;;;12.57;70.97;100123.41;5095950;29;20035;-82
2022/11/04 12:30:32;;;;;;;0.40;0.40;;;;;;;12.69;70.57;100129.88;5094228;29;20028;-83
2022/11/04 12:33:18;;;;;;;0.55;0.55;;;;;;;12.68;70.78;100129.97;5081809;29;20055;-83
2022/11/04 12:36:09;;;;;;;0.30;0.30;;;;;;;12.77;70.61;100129.53;5076978;29;20079;-83
2022/11/04 12:38:59;;;;;;;0.20;0.20;;;;;;;12.79;70.67;100130.31;5092310;29;20106;-83
2022/11/04 12:41:38;;;;;;;0.20;0.20;;;;;;;12.84;70.30;100130.97;5094401;28;20046;-83
2022/11/04 12:44:25;;;;;;;0.43;0.43;;;;;;;12.99;69.76;100125.91;5112256;29;20079;-82
2022/11/04 12:47:09;;;;;;;0.32;0.32;;;;;;;13.00;69.45;100117.94;5109350;28;20415;-82
2022/11/04 12:50:33;;;;;;;0.85;0.55;;;;;;;13.04;69.07;100113.38;5076251;29;20524;-83